createdAt,value
2023-02-11T00:01:45.426Z,92.63
2023-02-11T00:04:13.765Z,92.49
2023-02-11T00:06:42.103Z,92.69
2023-02-11T00:09:12.703Z,92.33
2023-02-11T00:11:40.758Z,92.43
2023-02-11T00:14:10.682Z,92.50
2023-02-11T00:16:38.741Z,92.54
2023-02-11T00:19:07.068Z,92.68
2023-02-11T00:21:35.912Z,92.76
2023-02-11T00:24:04.590Z,92.58
2023-02-11T00:26:35.319Z,92.56
2023-02-11T00:29:04.867Z,92.65
2023-02-11T00:31:33.855Z,92.75
2023-02-11T00:34:02.228Z,92.54
2023-02-11T00:36:31.268Z,92.63
2023-02-11T00:39:03.071Z,92.68
2023-02-11T00:41:31.811Z,92.67
2023-02-11T00:44:01.275Z,92.66
2023-02-11T00:46:31.185Z,92.62
2023-02-11T00:49:00.419Z,92.61
2023-02-11T00:51:29.324Z,92.62
2023-02-11T00:54:00.252Z,92.66
2023-02-11T00:56:28.245Z,92.60
2023-02-11T00:58:57.333Z,92.70
2023-02-11T01:01:25.667Z,92.88
2023-02-11T01:03:53.676Z,93.03
2023-02-11T01:06:24.319Z,92.94
2023-02-11T01:08:52.408Z,92.85
2023-02-11T01:11:21.368Z,93.02
2023-02-11T01:13:55.873Z,92.95
2023-02-11T01:16:24.004Z,93.06
2023-02-11T01:18:54.175Z,93.12
2023-02-11T01:21:22.200Z,93.06
2023-02-11T01:23:53.247Z,93.21
2023-02-11T01:26:21.375Z,93.13
2023-02-11T01:28:49.727Z,93.13
2023-02-11T01:31:17.695Z,93.31
2023-02-11T01:33:45.712Z,93.26
2023-02-11T01:36:13.745Z,93.14
2023-02-11T01:38:42.045Z,93.21
2023-02-11T01:41:12.257Z,93.29
2023-02-11T01:43:43.228Z,93.24
2023-02-11T01:46:21.782Z,93.32
2023-02-11T01:49:02.573Z,93.28
2023-02-11T01:51:39.305Z,93.27
2023-02-11T01:54:28.820Z,93.41
2023-02-11T01:57:17.521Z,93.38
2023-02-11T01:59:56.375Z,93.47
2023-02-11T02:02:47.805Z,93.38
2023-02-11T02:05:32.257Z,93.53
2023-02-11T02:08:32.193Z,93.73
2023-02-11T02:11:02.544Z,93.66
2023-02-11T02:13:32.796Z,93.77
2023-02-11T02:16:14.706Z,93.66
2023-02-11T02:19:00.531Z,93.75
2023-02-11T02:22:06.572Z,93.89
2023-02-11T02:24:51.586Z,94.01
2023-02-11T02:27:37.352Z,94.01
2023-02-11T02:30:37.090Z,94.11
2023-02-11T02:33:22.794Z,94.01
2023-02-11T02:36:09.763Z,94.02
2023-02-11T02:38:48.792Z,93.96
2023-02-11T02:41:23.671Z,94.12
2023-02-11T02:43:52.571Z,94.17
2023-02-11T02:46:26.802Z,94.22
2023-02-11T02:48:56.043Z,94.11
2023-02-11T02:51:45.395Z,94.22
2023-02-11T02:55:01.641Z,94.31
2023-02-11T02:57:47.148Z,94.34
2023-02-11T03:00:37.856Z,94.30
2023-02-11T03:03:36.988Z,94.32
2023-02-11T03:06:13.550Z,94.30
2023-02-11T03:09:14.541Z,94.22
2023-02-11T03:11:42.393Z,94.19
2023-02-11T03:14:14.900Z,94.15
2023-02-11T03:16:45.616Z,94.34
2023-02-11T03:19:27.394Z,94.33
2023-02-11T03:21:56.766Z,94.27
2023-02-11T03:24:37.030Z,94.28
2023-02-11T03:27:19.489Z,94.22
2023-02-11T03:30:15.464Z,93.99
2023-02-11T03:32:53.782Z,94.11
2023-02-11T03:35:41.552Z,94.06
2023-02-11T03:38:22.568Z,94.12
2023-02-11T03:40:51.577Z,94.06
2023-02-11T03:43:38.778Z,94.10
2023-02-11T03:46:07.628Z,94.07
2023-02-11T03:48:40.010Z,94.17
2023-02-11T03:51:10.268Z,94.32
2023-02-11T03:53:41.192Z,94.35
2023-02-11T03:56:14.337Z,94.23
2023-02-11T03:58:44.026Z,94.27
2023-02-11T04:01:12.144Z,94.33
2023-02-11T04:03:40.108Z,94.35
2023-02-11T04:06:08.258Z,94.48
2023-02-11T04:08:36.527Z,94.51
2023-02-11T04:11:04.399Z,94.46
2023-02-11T04:13:32.876Z,94.53
2023-02-11T04:16:00.813Z,94.52
2023-02-11T04:18:28.911Z,94.49
2023-02-11T04:20:56.816Z,94.51
2023-02-11T04:23:24.710Z,94.56
2023-02-11T04:25:52.861Z,94.57
2023-02-11T04:28:21.194Z,94.68
2023-02-11T04:30:50.899Z,94.79
2023-02-11T04:33:18.884Z,94.77
2023-02-11T04:35:46.964Z,94.86
2023-02-11T04:38:15.371Z,94.88
2023-02-11T04:40:43.334Z,94.91
2023-02-11T04:43:13.704Z,94.90
2023-02-11T04:45:41.696Z,94.93
2023-02-11T04:48:11.565Z,94.97
2023-02-11T04:50:39.460Z,94.98
2023-02-11T04:53:07.260Z,95.08
2023-02-11T04:55:35.126Z,95.14
2023-02-11T04:58:02.929Z,95.16
2023-02-11T05:00:30.822Z,95.19
2023-02-11T05:02:58.753Z,95.17
2023-02-11T05:05:26.668Z,95.23
2023-02-11T05:07:54.573Z,95.25
2023-02-11T05:10:22.532Z,95.41
2023-02-11T05:12:50.633Z,95.43
2023-02-11T05:15:18.558Z,95.40
2023-02-11T05:17:46.696Z,95.49
2023-02-11T05:20:14.710Z,95.57
2023-02-11T05:22:42.448Z,95.52
2023-02-11T05:25:10.265Z,95.63
2023-02-11T05:27:38.136Z,95.62
2023-02-11T05:30:07.033Z,95.75
2023-02-11T05:32:35.131Z,95.80
2023-02-11T05:35:03.016Z,95.76
2023-02-11T05:37:31.295Z,95.87
2023-02-11T05:39:59.395Z,95.90
2023-02-11T05:42:27.272Z,95.96
2023-02-11T05:44:55.121Z,96.02
2023-02-11T05:47:22.955Z,96.14
2023-02-11T05:49:51.592Z,96.06
2023-02-11T05:52:22.936Z,95.95
2023-02-11T05:54:51.465Z,96.07
2023-02-11T05:57:21.650Z,96.07
2023-02-11T05:59:52.659Z,96.15
2023-02-11T06:02:20.706Z,96.20
2023-02-11T06:04:48.531Z,96.19
2023-02-11T06:07:17.597Z,96.22
2023-02-11T06:09:48.188Z,96.21
2023-02-11T06:12:16.020Z,96.38
2023-02-11T06:14:43.999Z,96.38
2023-02-11T06:17:13.421Z,96.42
2023-02-11T06:19:43.295Z,96.47
2023-02-11T06:22:11.335Z,96.51
2023-02-11T06:24:58.928Z,96.67
2023-02-11T06:27:27.282Z,96.61
2023-02-11T06:29:55.113Z,96.54
2023-02-11T06:35:15.024Z,96.44
2023-02-11T06:37:43.233Z,96.65
2023-02-11T06:40:12.079Z,96.69
2023-02-11T06:42:40.276Z,96.69
2023-02-11T06:45:11.070Z,96.73
2023-02-11T06:47:40.210Z,96.78
2023-02-11T06:50:10.874Z,96.72
2023-02-11T06:52:40.088Z,96.90
2023-02-11T06:55:08.328Z,96.81
2023-02-11T06:57:36.191Z,96.81
2023-02-11T07:00:05.898Z,96.90
2023-02-11T07:02:33.990Z,96.87
2023-02-11T07:05:01.958Z,96.89
2023-02-11T07:07:32.392Z,96.88
2023-02-11T07:10:03.973Z,97.02
2023-02-11T07:12:34.875Z,96.85
2023-02-11T07:15:06.426Z,96.93
2023-02-11T07:17:38.963Z,96.82
2023-02-11T07:20:09.598Z,96.83
2023-02-11T07:22:37.556Z,96.82
2023-02-11T07:25:05.831Z,96.97
2023-02-11T07:27:33.758Z,96.88
2023-02-11T07:30:01.717Z,96.84
2023-02-11T07:32:29.663Z,96.83
2023-02-11T07:35:00.568Z,96.75
2023-02-11T07:37:28.693Z,96.76
2023-02-11T07:39:56.569Z,96.66
2023-02-11T07:42:24.424Z,96.54
2023-02-11T07:44:52.371Z,96.50
2023-02-11T07:47:20.361Z,96.35
2023-02-11T07:49:48.256Z,96.34
2023-02-11T07:52:18.547Z,96.38
2023-02-11T07:54:49.320Z,96.32
2023-02-11T07:57:17.481Z,96.28
2023-02-11T07:59:45.406Z,96.05
2023-02-11T08:02:13.339Z,96.09
2023-02-11T08:04:41.238Z,96.07
2023-02-11T08:07:09.267Z,95.80
2023-02-11T08:09:37.053Z,95.86
2023-02-11T08:12:05.134Z,95.93
2023-02-11T08:14:33.134Z,95.73
2023-02-11T08:17:01.106Z,95.73
2023-02-11T08:19:29.100Z,95.62
2023-02-11T08:21:59.618Z,95.71
2023-02-11T08:24:27.471Z,95.59
2023-02-11T08:26:55.440Z,95.63
2023-02-11T08:29:23.933Z,95.45
2023-02-11T08:31:52.297Z,95.47
2023-02-11T08:34:23.297Z,95.51
2023-02-11T08:36:51.293Z,95.29
2023-02-11T08:39:22.287Z,95.38
2023-02-11T08:41:59.700Z,95.25
2023-02-11T08:44:27.695Z,95.04
2023-02-11T08:46:55.764Z,95.07
2023-02-11T08:49:26.145Z,94.92
2023-02-11T08:52:03.767Z,94.58
2023-02-11T08:54:32.142Z,94.64
2023-02-11T08:57:01.872Z,94.57
2023-02-11T08:59:29.873Z,94.42
2023-02-11T09:02:00.663Z,94.39
2023-02-11T09:04:32.579Z,94.46
2023-02-11T09:07:00.613Z,94.40
2023-02-11T09:09:28.401Z,94.25
2023-02-11T09:11:57.396Z,94.33
2023-02-11T09:14:25.484Z,93.86
2023-02-11T09:16:54.085Z,93.91
2023-02-11T09:19:25.059Z,93.95
2023-02-11T09:21:52.933Z,93.73
2023-02-11T09:24:20.934Z,93.13
2023-02-11T09:26:49.836Z,93.19
2023-02-11T09:29:17.869Z,93.00
2023-02-11T09:31:45.961Z,92.84
2023-02-11T09:34:16.996Z,92.69
2023-02-11T09:36:44.941Z,92.77
2023-02-11T09:39:18.431Z,92.50
2023-02-11T09:42:20.425Z,92.57
2023-02-11T09:44:48.900Z,92.52
2023-02-11T09:47:46.790Z,92.48
2023-02-11T09:50:22.538Z,92.25
2023-02-11T09:52:58.138Z,92.22
2023-02-11T09:55:37.822Z,91.78
2023-02-11T09:58:13.684Z,91.90
2023-02-11T10:00:58.844Z,91.48
2023-02-11T10:04:00.329Z,91.30
2023-02-11T10:06:48.220Z,91.28
2023-02-11T10:09:41.030Z,91.25
2023-02-11T10:12:12.611Z,90.89
2023-02-11T10:15:02.245Z,91.09
2023-02-11T10:18:04.271Z,90.38
2023-02-11T10:20:35.041Z,90.01
2023-02-11T10:23:16.664Z,89.77
2023-02-11T10:25:53.085Z,90.04
2023-02-11T10:28:44.546Z,89.86
2023-02-11T10:31:21.374Z,89.67
2023-02-11T10:34:03.210Z,89.20
2023-02-11T10:36:36.084Z,89.35
2023-02-11T10:39:23.088Z,89.46
2023-02-11T10:41:59.260Z,88.85
2023-02-11T10:44:34.723Z,89.25
2023-02-11T10:47:37.569Z,89.25
2023-02-11T10:50:21.732Z,89.27
2023-02-11T10:52:52.496Z,89.13
2023-02-11T10:55:35.362Z,89.21
2023-02-11T10:58:09.372Z,88.95
2023-02-11T11:00:40.670Z,89.01
2023-02-11T11:03:32.082Z,88.78
2023-02-11T11:06:02.748Z,88.62
2023-02-11T11:08:40.952Z,88.43
2023-02-11T11:11:14.958Z,88.41
2023-02-11T11:14:01.286Z,88.40
2023-02-11T11:16:32.350Z,88.32
2023-02-11T11:19:09.210Z,88.45
2023-02-11T11:21:58.876Z,88.13
2023-02-11T11:24:34.415Z,88.66
2023-02-11T11:27:04.309Z,88.69
2023-02-11T11:29:51.134Z,88.22
2023-02-11T11:32:37.092Z,87.99
2023-02-11T11:35:20.489Z,87.83
2023-02-11T11:38:01.652Z,87.49
2023-02-11T11:40:32.585Z,87.80
2023-02-11T11:43:12.618Z,87.19
2023-02-11T11:45:54.701Z,87.12
2023-02-11T11:48:30.456Z,87.03
2023-02-11T11:51:02.150Z,87.20
2023-02-11T11:53:42.051Z,87.21
2023-02-11T11:56:22.761Z,87.16
2023-02-11T11:58:50.986Z,86.80
2023-02-11T12:01:40.331Z,86.68
2023-02-11T12:04:33.131Z,87.28
2023-02-11T12:07:36.947Z,87.24
2023-02-11T12:10:26.565Z,87.19
2023-02-11T12:13:03.400Z,87.30
2023-02-11T12:15:57.078Z,87.01
2023-02-11T12:19:00.491Z,86.57
2023-02-11T12:22:22.873Z,86.27
2023-02-11T12:25:16.602Z,86.23
2023-02-11T12:28:21.686Z,86.68
2023-02-11T12:31:25.559Z,86.38
2023-02-11T12:34:02.177Z,86.05
2023-02-11T12:36:55.340Z,85.58
2023-02-11T12:40:14.707Z,85.31
2023-02-11T12:43:18.455Z,85.54
2023-02-11T12:46:16.464Z,85.22
2023-02-11T12:49:23.751Z,84.89
2023-02-11T12:52:17.745Z,84.60
2023-02-11T12:55:04.208Z,84.37
2023-02-11T12:57:39.401Z,84.12
2023-02-11T13:00:42.592Z,84.07
2023-02-11T13:03:18.424Z,83.56
2023-02-11T13:06:01.891Z,83.74
2023-02-11T13:08:45.969Z,83.30
2023-02-11T13:11:22.891Z,83.38
2023-02-11T13:13:50.898Z,83.53
2023-02-11T13:16:44.947Z,83.48
2023-02-11T13:19:28.642Z,83.27
2023-02-11T13:22:30.034Z,83.11
2023-02-11T13:25:29.022Z,82.81
2023-02-11T13:28:05.400Z,82.50
2023-02-11T13:30:40.811Z,82.88
2023-02-11T13:33:30.148Z,83.00
2023-02-11T13:35:57.999Z,82.01
2023-02-11T13:38:29.498Z,82.07
2023-02-11T13:41:18.077Z,82.08
2023-02-11T13:43:56.804Z,81.79
2023-02-11T13:46:27.611Z,81.27
2023-02-11T13:48:56.815Z,80.78
2023-02-11T13:51:42.872Z,80.88
2023-02-11T13:54:39.085Z,81.31
2023-02-11T13:57:22.360Z,80.88
2023-02-11T13:59:55.841Z,81.15
2023-02-11T14:02:55.838Z,81.15
2023-02-11T14:05:48.608Z,81.15
2023-02-11T14:08:39.540Z,80.44
2023-02-11T14:11:33.328Z,81.35
2023-02-11T14:14:14.895Z,81.75
2023-02-11T14:17:06.803Z,82.36
2023-02-11T14:19:35.867Z,82.00
2023-02-11T14:22:26.068Z,82.50
2023-02-11T14:25:02.335Z,82.83
2023-02-11T14:27:56.751Z,83.24
2023-02-11T14:30:54.808Z,83.97
2023-02-11T14:33:28.993Z,83.83
2023-02-11T14:36:25.608Z,83.36
2023-02-11T14:39:15.340Z,83.46
2023-02-11T14:41:48.651Z,83.32
2023-02-11T14:44:31.409Z,83.03
2023-02-11T14:46:59.715Z,83.23
2023-02-11T14:49:37.092Z,83.37
2023-02-11T14:52:14.168Z,82.97
2023-02-11T14:54:44.498Z,82.85
2023-02-11T14:57:33.595Z,82.22
2023-02-11T15:00:19.715Z,82.43
2023-02-11T15:02:48.071Z,82.13
2023-02-11T15:05:28.885Z,82.42
2023-02-11T15:08:07.380Z,82.01
2023-02-11T15:10:42.745Z,82.11
2023-02-11T15:13:20.098Z,82.15
2023-02-11T15:15:50.958Z,81.97
2023-02-11T15:18:24.126Z,82.12
2023-02-11T15:21:15.774Z,82.02
2023-02-11T15:24:00.727Z,82.34
2023-02-11T15:26:29.966Z,82.71
2023-02-11T15:28:59.886Z,82.93
2023-02-11T15:31:34.998Z,82.80
2023-02-11T15:34:08.876Z,83.40
2023-02-11T15:36:37.750Z,83.74
2023-02-11T15:39:36.746Z,83.77
2023-02-11T15:42:25.573Z,84.19
2023-02-11T15:45:32.998Z,84.37
2023-02-11T15:48:26.849Z,84.60
2023-02-11T15:51:12.911Z,84.57
2023-02-11T15:53:48.149Z,84.79
2023-02-11T15:56:29.791Z,84.63
2023-02-11T15:59:00.639Z,84.65
2023-02-11T16:01:37.863Z,84.85
2023-02-11T16:04:15.789Z,84.75
2023-02-11T16:06:47.632Z,84.61
2023-02-11T16:09:58.493Z,84.69
2023-02-11T16:12:34.843Z,85.06
2023-02-11T16:15:30.312Z,84.86
2023-02-11T16:17:58.485Z,84.96
2023-02-11T16:20:26.664Z,85.09
2023-02-11T16:22:55.116Z,84.92
2023-02-11T16:25:27.701Z,85.07
2023-02-11T16:27:55.859Z,85.14
2023-02-11T16:30:34.841Z,85.38
2023-02-11T16:33:05.502Z,85.52
2023-02-11T16:35:36.329Z,85.78
2023-02-11T16:38:06.398Z,86.01
2023-02-11T16:40:34.328Z,86.04
2023-02-11T16:43:02.293Z,86.34
2023-02-11T16:45:30.375Z,86.48
2023-02-11T16:47:58.389Z,86.57
2023-02-11T16:50:26.658Z,86.73
2023-02-11T16:52:55.161Z,86.95
2023-02-11T16:55:23.130Z,87.15
2023-02-11T16:57:50.974Z,87.24
2023-02-11T17:00:20.080Z,87.55
2023-02-11T17:02:48.121Z,87.56
2023-02-11T17:05:23.153Z,87.74
2023-02-11T17:07:51.538Z,87.92
2023-02-11T17:10:22.814Z,88.14
2023-02-11T17:12:52.518Z,88.10
2023-02-11T17:15:20.331Z,88.18
2023-02-11T17:17:48.130Z,88.25
2023-02-11T17:20:16.639Z,88.29
2023-02-11T17:22:44.458Z,88.43
2023-02-11T17:25:14.706Z,88.38
2023-02-11T17:27:43.043Z,88.39
2023-02-11T17:30:16.177Z,88.44
2023-02-11T17:32:44.427Z,88.52
2023-02-11T17:35:12.733Z,88.80
2023-02-11T17:37:40.888Z,88.61
2023-02-11T17:40:09.401Z,88.60
2023-02-11T17:42:37.243Z,88.62
2023-02-11T17:45:05.582Z,88.63
2023-02-11T17:47:33.538Z,88.74
2023-02-11T17:50:03.124Z,88.70
2023-02-11T17:52:31.156Z,88.92
2023-02-11T17:54:59.203Z,88.94
2023-02-11T17:57:29.595Z,89.07
2023-02-11T17:59:57.820Z,88.95
2023-02-11T18:02:25.873Z,88.98
2023-02-11T18:04:59.713Z,89.14
2023-02-11T18:07:27.679Z,89.06
2023-02-11T18:09:56.563Z,89.30
2023-02-11T18:12:27.547Z,89.11
2023-02-11T18:14:58.346Z,89.19
2023-02-11T18:17:53.256Z,89.13
2023-02-11T18:20:21.389Z,89.21
2023-02-11T18:22:49.359Z,89.31
2023-02-11T18:25:18.737Z,89.34
2023-02-11T18:27:46.568Z,89.50
2023-02-11T18:30:20.363Z,89.62
2023-02-11T18:32:48.468Z,89.68
2023-02-11T18:35:16.505Z,89.64
2023-02-11T18:37:44.451Z,89.79
2023-02-11T18:40:13.661Z,89.82
2023-02-11T18:42:46.644Z,89.57
2023-02-11T18:45:15.451Z,89.79
2023-02-11T18:47:43.834Z,89.71
2023-02-11T18:50:13.943Z,89.56
2023-02-11T18:52:44.464Z,89.82
2023-02-11T18:55:14.523Z,89.82
2023-02-11T18:57:43.159Z,89.75
2023-02-11T19:00:17.584Z,90.01
2023-02-11T19:02:55.027Z,89.87
2023-02-11T19:05:23.553Z,89.98
2023-02-11T19:07:51.551Z,90.09
2023-02-11T19:10:20.428Z,90.18
2023-02-11T19:12:48.909Z,90.13
2023-02-11T19:15:20.775Z,90.09
2023-02-11T19:17:49.698Z,90.03
2023-02-11T19:20:18.479Z,90.04
2023-02-11T19:22:46.360Z,90.28
2023-02-11T19:25:17.463Z,90.33
2023-02-11T19:27:45.466Z,90.26
2023-02-11T19:30:13.799Z,90.28
2023-02-11T19:32:41.886Z,90.57
2023-02-11T19:35:09.940Z,90.49
2023-02-11T19:37:38.005Z,90.40
2023-02-11T19:40:07.421Z,90.08
2023-02-11T19:42:35.667Z,90.28
2023-02-11T19:45:03.868Z,90.59
2023-02-11T19:47:31.845Z,90.59
2023-02-11T19:50:00.254Z,90.74
2023-02-11T19:52:28.393Z,90.48
2023-02-11T19:54:56.439Z,90.59
2023-02-11T19:57:24.558Z,90.47
2023-02-11T19:59:54.906Z,90.58
2023-02-11T20:02:23.400Z,90.64
2023-02-11T20:04:51.554Z,90.48
2023-02-11T20:07:19.778Z,90.67
2023-02-11T20:09:47.669Z,90.60
2023-02-11T20:12:15.701Z,90.66
2023-02-11T20:14:43.747Z,90.87
2023-02-11T20:17:11.791Z,90.66
2023-02-11T20:19:39.726Z,90.86
2023-02-11T20:22:20.114Z,90.77
2023-02-11T20:24:49.212Z,90.77
2023-02-11T20:27:19.740Z,91.02
2023-02-11T20:29:48.006Z,90.90
2023-02-11T20:32:16.091Z,90.87
2023-02-11T20:34:44.232Z,91.03
2023-02-11T20:37:12.816Z,91.02
2023-02-11T20:39:41.987Z,91.16
2023-02-11T20:42:11.924Z,91.06
2023-02-11T20:44:40.632Z,91.07
2023-02-11T20:47:08.586Z,91.29
2023-02-11T20:49:36.463Z,91.07
2023-02-11T20:52:04.426Z,91.21
2023-02-11T20:54:32.547Z,91.20
2023-02-11T20:57:00.480Z,91.30
2023-02-11T20:59:28.439Z,91.54
2023-02-11T21:01:57.459Z,91.41
2023-02-11T21:04:28.180Z,91.54
2023-02-11T21:06:59.546Z,91.69
2023-02-11T21:09:30.048Z,91.55
2023-02-11T21:11:58.344Z,91.63
2023-02-11T21:14:27.407Z,91.70
2023-02-11T21:16:55.697Z,91.69
2023-02-11T21:19:23.818Z,91.65
2023-02-11T21:21:56.326Z,91.61
2023-02-11T21:24:25.015Z,91.71
2023-02-11T21:26:55.863Z,91.61
2023-02-11T21:29:23.985Z,91.76
2023-02-11T21:31:52.121Z,91.90
2023-02-11T21:34:20.677Z,91.72
2023-02-11T21:36:51.135Z,91.98
2023-02-11T21:39:20.383Z,91.94
2023-02-11T21:41:48.601Z,91.94
2023-02-11T21:44:16.553Z,91.93
2023-02-11T21:46:45.005Z,91.81
2023-02-11T21:49:13.334Z,92.11
2023-02-11T21:51:41.297Z,92.03
2023-02-11T21:54:11.045Z,91.97
2023-02-11T21:56:39.064Z,92.15
2023-02-11T21:59:06.976Z,92.10
2023-02-11T22:01:37.724Z,92.28
2023-02-11T22:04:05.938Z,92.17
2023-02-11T22:06:35.036Z,92.24
2023-02-11T22:09:06.487Z,92.16
2023-02-11T22:11:34.894Z,92.12
2023-02-11T22:14:03.584Z,92.33
2023-02-11T22:16:32.143Z,92.43
2023-02-11T22:19:02.358Z,92.30
2023-02-11T22:21:30.501Z,92.24
2023-02-11T22:23:58.365Z,92.25
2023-02-11T22:26:27.719Z,92.31
2023-02-11T22:28:56.300Z,92.23
2023-02-11T22:31:30.691Z,92.14
2023-02-11T22:33:59.081Z,92.31
2023-02-11T22:36:29.296Z,92.10
2023-02-11T22:38:59.944Z,92.29
2023-02-11T22:41:27.902Z,92.23
2023-02-11T22:43:55.779Z,92.01
2023-02-11T22:46:24.499Z,91.92
2023-02-11T22:48:52.670Z,91.99
2023-02-11T22:51:24.879Z,92.14
2023-02-11T22:54:09.956Z,92.07
2023-02-11T22:56:37.835Z,92.17
2023-02-11T22:59:09.194Z,92.27
2023-02-11T23:01:37.258Z,92.46
2023-02-11T23:04:07.213Z,92.49
2023-02-11T23:06:35.584Z,92.79
2023-02-11T23:09:09.307Z,93.00
2023-02-11T23:11:37.259Z,92.97
2023-02-11T23:14:06.796Z,93.07
2023-02-11T23:16:35.848Z,93.14
2023-02-11T23:19:07.005Z,93.17
2023-02-11T23:21:38.096Z,93.30
2023-02-11T23:24:10.634Z,93.47
2023-02-11T23:26:40.789Z,93.42
2023-02-11T23:29:09.625Z,93.55
2023-02-11T23:31:40.373Z,93.49
2023-02-11T23:34:09.250Z,93.60
2023-02-11T23:36:37.626Z,93.57
2023-02-11T23:39:05.861Z,93.66
2023-02-11T23:41:33.763Z,93.75
2023-02-11T23:44:01.745Z,93.79
2023-02-11T23:46:29.849Z,93.78
2023-02-11T23:48:57.791Z,93.89
2023-02-11T23:51:25.961Z,94.12
2023-02-11T23:53:56.085Z,94.23
2023-02-11T23:56:26.534Z,94.40
2023-02-11T23:58:56.691Z,94.76
